Time;durP1;ratioP1;P1;durP2;ratioP2;P2;SDS_P1;SDS_P2;PMS_P1;PMS_P2;Temp;Humidity;BMP_temperature;BMP_pressure;BME280_temperature;BME280_humidity;BME280_pressure;Samples;Min_cycle;Max_cycle;Signal;HPM_P1;HPM_P2
2023/02/04 00:00:12;;;;;;;13.85;5.80;;;;;;;2.10;56.85;93695.63;5105071;28;20213;-77
2023/02/04 00:02:38;;;;;;;14.82;6.55;;;;;;;2.09;58.71;93686.16;5104884;28;20069;-77
2023/02/04 00:05:04;;;;;;;10.63;5.03;;;;;;;2.01;60.46;93684.03;5103919;28;20032;-77
2023/02/04 00:07:29;;;;;;;10.00;4.65;;;;;;;2.04;61.53;93690.66;5104783;28;20035;-77
2023/02/04 00:09:55;;;;;;;17.23;4.72;;;;;;;2.03;61.94;93686.41;5104828;28;20111;-77
2023/02/04 00:12:20;;;;;;;10.07;4.65;;;;;;;2.05;62.55;93658.81;5103544;28;20024;-77
2023/02/04 00:14:46;;;;;;;10.00;5.32;;;;;;;1.96;63.28;93681.44;5104782;28;20024;-77
2023/02/04 00:17:11;;;;;;;15.85;4.93;;;;;;;1.88;63.99;93674.84;5104520;28;20026;-77
2023/02/04 00:19:39;;;;;;;10.93;5.10;;;;;;;1.83;64.43;93674.06;5104712;28;20063;-77
2023/02/04 00:22:05;;;;;;;12.77;5.60;;;;;;;1.83;65.47;93674.84;5104880;28;20028;-77
2023/02/04 00:24:31;;;;;;;10.00;4.78;;;;;;;1.77;65.61;93655.69;5104571;28;20035;-77
2023/02/04 00:26:56;;;;;;;12.23;5.65;;;;;;;1.73;65.89;93670.41;5104569;28;20032;-78
2023/02/04 00:29:22;;;;;;;10.20;4.97;;;;;;;1.73;66.24;93667.75;5104724;28;20031;-78
2023/02/04 00:31:47;;;;;;;15.75;5.40;;;;;;;1.73;66.42;93652.00;5104459;28;20035;-78
2023/02/04 00:34:13;;;;;;;10.52;5.05;;;;;;;1.70;66.69;93652.50;5104225;28;20338;-77
2023/02/04 00:36:38;;;;;;;9.20;5.05;;;;;;;1.68;66.92;93644.09;5104354;28;20016;-77
2023/02/04 00:39:04;;;;;;;10.95;5.63;;;;;;;1.69;67.58;93653.56;5104375;28;20104;-77
2023/02/04 00:41:29;;;;;;;9.57;5.32;;;;;;;1.69;67.76;93664.09;5104236;28;20023;-78
2023/02/04 00:43:54;;;;;;;13.85;5.43;;;;;;;1.67;68.13;93658.31;5104280;28;20334;-78
2023/02/04 00:46:20;;;;;;;11.73;5.45;;;;;;;1.62;68.60;93649.63;5103340;28;20036;-77
2023/02/04 00:48:45;;;;;;;15.73;6.20;;;;;;;1.55;68.61;93668.28;5103993;28;20022;-78
2023/02/04 00:51:10;;;;;;;12.45;7.22;;;;;;;1.54;69.07;93658.81;5104085;28;20012;-78
2023/02/04 00:53:36;;;;;;;13.77;6.60;;;;;;;1.57;69.62;93634.66;5103980;28;20016;-78
2023/02/04 00:56:01;;;;;;;11.57;6.90;;;;;;;1.45;70.10;93666.41;5104175;28;20023;-78
2023/02/04 00:58:27;;;;;;;15.48;6.68;;;;;;;1.34;70.54;93639.38;5103935;28;20253;-77
2023/02/04 01:00:52;;;;;;;12.73;7.60;;;;;;;1.31;71.04;93639.88;5104000;28;20011;-77
2023/02/04 01:03:18;;;;;;;17.17;7.20;;;;;;;1.25;71.32;93625.16;5103694;28;20016;-76
2023/02/04 01:05:43;;;;;;;13.18;6.75;;;;;;;1.18;71.82;93624.59;5103643;28;20042;-76
2023/02/04 01:08:08;;;;;;;13.15;7.13;;;;;;;1.23;71.50;93622.00;5103740;28;20016;-76
2023/02/04 01:10:34;;;;;;;18.55;8.45;;;;;;;1.24;71.26;93631.44;5103935;28;20035;-76
2023/02/04 01:12:59;;;;;;;19.88;7.55;;;;;;;1.19;71.41;93615.69;5103774;28;20027;-76
2023/02/04 01:15:25;;;;;;;21.48;8.38;;;;;;;1.19;71.41;93599.94;5103691;28;20044;-76
2023/02/04 01:17:50;;;;;;;14.80;7.40;;;;;;;1.11;71.26;93603.09;5102883;28;20058;-76
2023/02/04 01:20:16;;;;;;;16.45;8.13;;;;;;;1.08;71.05;93604.41;5103560;28;20050;-76
2023/02/04 01:22:41;;;;;;;13.07;7.15;;;;;;;1.10;70.94;93589.19;5103670;28;20038;-76
2023/02/04 01:25:07;;;;;;;14.60;7.25;;;;;;;1.13;70.52;93586.00;5103514;28;20052;-76
2023/02/04 01:27:32;;;;;;;16.63;7.88;;;;;;;1.04;70.53;93586.78;5103312;28;20095;-76
2023/02/04 01:29:58;;;;;;;15.73;8.02;;;;;;;1.09;70.47;93595.47;5103519;28;20023;-76
2023/02/04 01:32:24;;;;;;;20.10;7.47;;;;;;;1.11;70.40;93584.72;5103412;28;20081;-76
2023/02/04 01:34:49;;;;;;;12.10;6.97;;;;;;;1.15;70.42;93577.88;5103282;28;20076;-76
2023/02/04 01:37:14;;;;;;;20.67;8.32;;;;;;;1.21;70.28;93566.34;5103568;28;20023;-76
2023/02/04 01:39:40;;;;;;;17.13;7.68;;;;;;;1.23;70.27;93574.75;5103091;28;20024;-76
2023/02/04 01:42:05;;;;;;;19.65;7.20;;;;;;;1.26;70.41;93587.34;5103210;28;20043;-76
2023/02/04 01:44:31;;;;;;;15.30;7.30;;;;;;;1.25;70.42;93577.91;5103491;28;20048;-76
2023/02/04 01:46:57;;;;;;;17.27;7.32;;;;;;;1.27;69.97;93565.28;5102977;28;20107;-76
2023/02/04 01:49:23;;;;;;;16.13;7.45;;;;;;;1.25;70.20;93556.09;5103110;28;20031;-76
2023/02/04 01:51:48;;;;;;;14.25;7.57;;;;;;;1.21;70.15;93555.84;5103311;28;20240;-76
2023/02/04 01:54:16;;;;;;;15.40;6.80;;;;;;;1.26;69.92;93552.41;5103221;28;20346;-76
2023/02/04 01:56:45;;;;;;;12.50;6.72;;;;;;;1.19;70.16;93555.31;5103157;28;20024;-76
2023/02/04 01:59:12;;;;;;;18.02;6.28;;;;;;;1.18;70.50;93541.41;5103148;28;20028;-78
2023/02/04 02:01:43;;;;;;;13.00;6.22;;;;;;;1.19;70.45;93555.31;5102968;28;20051;-78
2023/02/04 02:04:10;;;;;;;13.40;6.38;;;;;;;1.13;70.49;93551.88;5103188;28;20027;-75
2023/02/04 02:06:40;;;;;;;11.75;6.75;;;;;;;1.12;70.79;93547.69;5102948;28;20073;-75
2023/02/04 02:09:06;;;;;;;16.30;6.75;;;;;;;1.07;70.88;93547.69;5102963;28;20032;-76
2023/02/04 02:11:32;;;;;;;17.27;6.85;;;;;;;1.10;71.01;93539.31;5103124;28;20085;-76
2023/02/04 02:13:57;;;;;;;10.98;6.55;;;;;;;1.13;70.73;93537.97;5103025;28;20073;-77
2023/02/04 02:16:23;;;;;;;20.08;7.22;;;;;;;1.13;70.69;93544.00;5102957;28;20035;-77
2023/02/04 02:18:52;;;;;;;12.10;6.90;;;;;;;1.13;70.80;93506.47;5103267;28;20095;-77
2023/02/04 02:21:28;;;;;;;12.85;6.80;;;;;;;1.14;70.50;93510.66;5102908;28;20070;-77
2023/02/04 02:23:59;;;;;;;14.38;6.40;;;;;;;1.14;70.30;93515.91;5102826;28;20322;-76
2023/02/04 02:26:26;;;;;;;11.82;6.53;;;;;;;1.13;70.18;93509.88;5102814;28;20417;-76
2023/02/04 02:28:52;;;;;;;12.05;6.78;;;;;;;1.12;70.37;93518.81;5103456;28;20035;-76
2023/02/04 02:31:20;;;;;;;14.68;7.97;;;;;;;1.11;70.26;93498.09;5106793;28;20024;-76
2023/02/04 02:33:46;;;;;;;10.65;6.25;;;;;;;1.10;70.62;93481.56;5106831;28;20020;-76
2023/02/04 02:36:11;;;;;;;12.10;6.53;;;;;;;1.12;70.71;93476.81;5106649;28;20360;-76
2023/02/04 02:38:38;;;;;;;12.75;6.93;;;;;;;1.15;70.70;93465.00;5106602;28;20024;-76
2023/02/04 02:41:04;;;;;;;16.27;7.07;;;;;;;1.15;70.39;93454.50;5106688;28;20016;-76
2023/02/04 02:43:30;;;;;;;13.25;6.72;;;;;;;1.15;70.44;93459.75;5106513;28;20019;-76
2023/02/04 02:45:58;;;;;;;15.38;7.00;;;;;;;1.17;70.53;93450.56;5106272;28;20369;-76
2023/02/04 02:48:24;;;;;;;13.90;6.22;;;;;;;1.16;70.48;93442.94;5106385;28;20020;-76
2023/02/04 02:50:50;;;;;;;14.00;7.30;;;;;;;1.17;70.31;93449.78;5106545;28;20039;-76
2023/02/04 02:53:17;;;;;;;11.13;6.65;;;;;;;1.20;70.04;93447.41;5106370;28;20012;-76
2023/02/04 02:55:44;;;;;;;13.00;6.80;;;;;;;1.22;70.06;93452.38;5106204;28;20016;-76
2023/02/04 02:58:27;;;;;;;17.67;6.70;;;;;;;1.27;70.08;93449.78;5106132;28;20038;-76
2023/02/04 03:00:54;;;;;;;11.18;6.07;;;;;;;1.26;69.98;93447.41;5106273;28;20315;-76
2023/02/04 03:03:24;;;;;;;13.57;6.88;;;;;;;1.29;69.79;93423.25;5106228;28;20023;-76
2023/02/04 03:06:12;;;;;;;15.80;6.55;;;;;;;1.26;69.88;93442.94;5106028;28;20230;-76
2023/02/04 03:08:39;;;;;;;16.73;6.57;;;;;;;1.29;69.70;93437.16;5098557;28;20211;-76
2023/02/04 03:11:05;;;;;;;15.48;5.97;;;;;;;1.31;69.90;93429.03;5106310;28;20218;-76
2023/02/04 03:13:30;;;;;;;14.93;6.80;;;;;;;1.32;69.67;93449.78;5106058;28;20051;-76
2023/02/04 03:15:56;;;;;;;11.73;5.55;;;;;;;1.35;69.46;93438.72;5105782;28;20020;-76
2023/02/04 03:18:22;;;;;;;15.35;6.60;;;;;;;1.35;69.42;93443.97;5105957;28;20117;-76
2023/02/04 03:20:50;;;;;;;19.98;6.15;;;;;;;1.35;69.22;93464.97;5105719;28;20027;-76
2023/02/04 03:23:15;;;;;;;11.95;6.70;;;;;;;1.36;69.56;93482.31;5105778;28;20044;-76
2023/02/04 03:25:41;;;;;;;14.57;6.75;;;;;;;1.37;69.50;93454.22;5105788;28;20211;-76
2023/02/04 03:28:08;;;;;;;12.95;7.07;;;;;;;1.32;69.70;93456.84;5105650;28;20020;-76
2023/02/04 03:30:33;;;;;;;12.80;7.20;;;;;;;1.32;69.99;93431.41;5105764;28;20023;-76
2023/02/04 03:32:59;;;;;;;10.90;6.07;;;;;;;1.29;69.65;93447.66;5105651;28;20020;-76
2023/02/04 03:35:24;;;;;;;13.90;6.63;;;;;;;1.27;70.15;93459.50;5105521;28;20102;-76
2023/02/04 03:37:50;;;;;;;21.38;6.97;;;;;;;1.28;70.03;93459.19;5105424;28;20259;-76
2023/02/04 03:40:15;;;;;;;10.32;6.00;;;;;;;1.27;69.94;93449.78;5105088;28;20020;-76
2023/02/04 03:42:41;;;;;;;11.82;5.55;;;;;;;1.25;70.46;93451.88;5105448;28;20016;-76
2023/02/04 03:45:07;;;;;;;11.18;6.60;;;;;;;1.26;69.91;93448.19;5105449;28;20024;-75
2023/02/04 03:47:32;;;;;;;12.02;5.85;;;;;;;1.27;70.07;93415.63;5105144;28;20055;-76
2023/02/04 03:49:58;;;;;;;12.27;5.80;;;;;;;1.29;69.82;93426.66;5103870;28;20016;-76
2023/02/04 03:52:23;;;;;;;10.25;5.47;;;;;;;1.28;69.72;93393.56;5105362;28;20012;-76
2023/02/04 03:54:48;;;;;;;12.23;5.35;;;;;;;1.19;69.64;93413.56;5105140;28;20028;-76
2023/02/04 03:57:14;;;;;;;8.43;5.18;;;;;;;1.10;69.74;93405.44;5105155;28;20321;-76
2023/02/04 03:59:40;;;;;;;12.60;4.32;;;;;;;1.04;70.20;93392.56;5104911;28;20016;-77
2023/02/04 04:02:06;;;;;;;13.65;4.63;;;;;;;1.08;70.36;93381.28;5105159;28;20022;-77
2023/02/04 04:04:31;;;;;;;9.88;5.00;;;;;;;1.14;70.39;93384.66;5105045;28;20062;-76
2023/02/04 04:06:56;;;;;;;10.63;4.65;;;;;;;1.12;70.08;93377.09;5104874;28;20031;-76
2023/02/04 04:09:22;;;;;;;12.38;5.15;;;;;;;1.16;69.75;93364.19;5104886;28;20023;-75
2023/02/04 04:11:47;;;;;;;7.45;4.60;;;;;;;1.19;69.87;93359.19;5104925;28;20020;-75
2023/02/04 04:14:13;;;;;;;11.93;5.35;;;;;;;1.30;69.53;93359.16;5104955;28;20024;-75
2023/02/04 04:16:38;;;;;;;11.73;5.30;;;;;;;1.35;69.58;93356.53;5104805;28;20024;-75
2023/02/04 04:19:04;;;;;;;9.75;4.95;;;;;;;1.43;69.14;93344.72;5104715;28;20311;-78
2023/02/04 04:21:29;;;;;;;10.32;5.32;;;;;;;1.44;68.77;93335.75;5104582;28;20095;-78
2023/02/04 04:23:55;;;;;;;9.80;4.10;;;;;;;1.17;69.31;93353.44;5104711;28;20028;-76
2023/02/04 04:26:20;;;;;;;11.40;3.45;;;;;;;1.24;68.92;93340.00;5104478;28;20031;-75
2023/02/04 04:28:45;;;;;;;10.55;5.30;;;;;;;1.38;68.86;93348.94;5104478;28;20020;-76
2023/02/04 04:31:11;;;;;;;10.70;5.15;;;;;;;1.44;68.77;93364.66;5104391;28;20016;-77
2023/02/04 04:33:37;;;;;;;9.63;5.40;;;;;;;1.49;68.64;93375.16;5103320;28;20095;-78
2023/02/04 04:36:04;;;;;;;10.50;5.38;;;;;;;1.53;68.67;93379.59;5104685;28;20253;-77
2023/02/04 04:38:29;;;;;;;10.55;5.25;;;;;;;1.58;68.61;93350.66;5103120;28;20099;-76
2023/02/04 04:40:54;;;;;;;16.13;4.90;;;;;;;1.46;68.34;93373.81;5104340;28;20223;-76
2023/02/04 04:43:20;;;;;;;12.30;3.42;;;;;;;1.48;68.01;93387.47;5104242;28;20035;-76
2023/02/04 04:45:45;;;;;;;7.68;2.58;;;;;;;1.56;67.35;93396.66;5104069;28;20378;-76
2023/02/04 04:48:11;;;;;;;9.73;4.18;;;;;;;1.60;68.18;93395.06;5103907;28;20095;-77
2023/02/04 04:50:36;;;;;;;1.63;0.82;;;;;;;1.79;66.67;93403.94;5104067;28;20023;-77
2023/02/04 04:53:02;;;;;;;0.65;0.40;;;;;;;2.09;64.87;93401.44;5103589;28;20073;-77
2023/02/04 04:55:27;;;;;;;2.30;0.73;;;;;;;2.34;64.30;93400.50;5104016;28;20020;-78
2023/02/04 04:57:52;;;;;;;1.15;0.40;;;;;;;2.45;63.71;93404.63;5102900;28;20020;-78
2023/02/04 05:00:19;;;;;;;1.63;0.90;;;;;;;2.60;63.76;93416.91;5104063;28;20054;-78
2023/02/04 05:02:45;;;;;;;0.95;0.50;;;;;;;2.60;64.44;93390.59;5103705;28;20020;-77
2023/02/04 05:05:10;;;;;;;2.35;0.70;;;;;;;2.58;65.01;93411.13;5102711;28;20099;-77
2023/02/04 05:07:36;;;;;;;1.23;0.77;;;;;;;2.59;65.26;93383.78;5103641;28;20032;-77
2023/02/04 05:10:02;;;;;;;1.73;0.85;;;;;;;2.59;66.21;93394.28;5103784;28;20058;-77
2023/02/04 05:12:28;;;;;;;1.83;0.70;;;;;;;2.53;67.14;93390.13;5103618;28;20039;-76
2023/02/04 05:14:53;;;;;;;0.75;0.68;;;;;;;2.57;67.40;93380.63;5103651;28;20028;-76
2023/02/04 05:17:19;;;;;;;1.02;0.40;;;;;;;2.55;66.42;93388.78;5103759;28;20031;-77
2023/02/04 05:19:44;;;;;;;6.63;0.52;;;;;;;2.57;66.68;93389.28;5103567;28;20055;-77
2023/02/04 05:22:09;;;;;;;0.40;0.30;;;;;;;2.55;65.04;93404.56;5103415;28;20048;-77
2023/02/04 05:24:37;;;;;;;1.52;0.75;;;;;;;2.57;65.81;93452.44;5102486;28;20028;-77
2023/02/04 05:27:03;;;;;;;0.77;0.60;;;;;;;2.52;64.07;93410.38;5103773;28;20118;-77
2023/02/04 05:29:28;;;;;;;1.25;0.63;;;;;;;2.61;65.13;93423.75;5103598;28;20019;-75
2023/02/04 05:31:54;;;;;;;0.45;0.40;;;;;;;2.50;65.06;93412.47;5103481;28;20306;-75
2023/02/04 05:34:19;;;;;;;0.95;0.45;;;;;;;2.54;65.20;93413.50;5103104;28;20023;-75
2023/02/04 05:36:44;;;;;;;0.38;0.30;;;;;;;2.62;64.51;93422.66;5103461;28;20044;-75
2023/02/04 05:39:10;;;;;;;1.13;0.75;;;;;;;2.60;65.74;93444.00;5103478;28;20028;-77
2023/02/04 05:41:35;;;;;;;1.38;0.68;;;;;;;2.49;64.51;93446.97;5103311;28;20058;-77
2023/02/04 05:44:01;;;;;;;0.82;0.50;;;;;;;2.50;64.71;93454.56;5103315;28;20024;-75
2023/02/04 05:46:26;;;;;;;3.40;1.05;;;;;;;2.51;66.74;93466.69;5103005;28;20064;-74
2023/02/04 05:48:52;;;;;;;1.55;1.27;;;;;;;2.30;68.21;93481.00;5103363;28;20074;-75
2023/02/04 05:51:18;;;;;;;2.88;0.88;;;;;;;2.06;68.49;93476.38;5103107;28;20314;-75
2023/02/04 05:53:43;;;;;;;2.58;1.00;;;;;;;1.98;69.51;93482.19;5103049;28;20031;-78
2023/02/04 05:56:09;;;;;;;2.38;1.10;;;;;;;1.87;69.52;93496.41;5102932;28;20199;-76
2023/02/04 05:58:34;;;;;;;2.10;0.80;;;;;;;1.77;69.63;93471.75;5103420;28;20024;-76
2023/02/04 06:01:00;;;;;;;3.50;1.27;;;;;;;1.73;70.00;93444.41;5103041;28;20027;-76
2023/02/04 06:03:26;;;;;;;1.92;0.80;;;;;;;1.59;67.77;93438.16;5104769;28;20137;-76
2023/02/04 06:05:52;;;;;;;3.35;0.95;;;;;;;1.58;67.03;93431.31;5107197;28;20326;-75
2023/02/04 06:08:17;;;;;;;2.30;0.90;;;;;;;1.65;66.12;93423.97;5107059;28;20038;-75
2023/02/04 06:10:43;;;;;;;1.20;0.73;;;;;;;1.70;64.73;93433.66;5107255;28;20039;-76
2023/02/04 06:13:08;;;;;;;1.95;0.80;;;;;;;1.71;63.96;93449.16;5107048;28;20015;-76
2023/02/04 06:15:34;;;;;;;1.45;0.90;;;;;;;1.76;64.31;93449.13;5107067;28;20020;-77
2023/02/04 06:17:59;;;;;;;1.23;0.90;;;;;;;1.83;63.55;93440.16;5106928;28;20048;-78
2023/02/04 06:20:25;;;;;;;1.92;0.80;;;;;;;1.89;62.93;93439.88;5106922;28;20032;-76
2023/02/04 06:22:50;;;;;;;3.40;0.88;;;;;;;1.92;62.99;93470.91;5107112;28;20024;-75
2023/02/04 06:25:16;;;;;;;2.78;1.00;;;;;;;1.92;63.95;93470.91;5105807;28;20030;-75
2023/02/04 06:27:42;;;;;;;0.95;0.57;;;;;;;1.96;63.38;93473.78;5106946;28;20016;-75
2023/02/04 06:30:09;;;;;;;4.38;1.23;;;;;;;1.94;63.51;93468.78;5106490;28;20020;-77
2023/02/04 06:32:34;;;;;;;4.72;0.88;;;;;;;1.99;62.76;93481.91;5106724;28;20073;-77
2023/02/04 06:35:00;;;;;;;2.22;0.85;;;;;;;2.04;62.16;93467.97;5106694;28;20322;-77
2023/02/04 06:37:25;;;;;;;5.05;0.77;;;;;;;2.15;61.20;93473.97;5106447;28;20073;-74
2023/02/04 06:39:53;;;;;;;5.20;1.05;;;;;;;2.20;60.06;93498.41;5106518;28;20036;-74
2023/02/04 06:42:18;;;;;;;2.60;1.08;;;;;;;2.25;60.10;93467.88;5106532;28;20267;-75
2023/02/04 06:44:44;;;;;;;1.45;0.85;;;;;;;2.31;59.98;93479.94;5105473;28;20020;-75
2023/02/04 06:47:09;;;;;;;4.05;0.98;;;;;;;2.35;60.16;93484.38;5106357;28;20105;-75
2023/02/04 06:49:35;;;;;;;2.42;0.77;;;;;;;2.41;59.66;93467.53;5106674;28;20016;-75
2023/02/04 06:52:01;;;;;;;1.77;0.98;;;;;;;2.45;60.18;93472.25;5106377;28;20023;-76
2023/02/04 06:54:26;;;;;;;3.72;0.85;;;;;;;2.50;60.07;93457.22;5106307;28;20345;-76
2023/02/04 06:56:51;;;;;;;2.75;0.88;;;;;;;2.51;60.12;93455.38;5106341;28;20016;-76
2023/02/04 06:59:17;;;;;;;3.53;0.75;;;;;;;2.46;59.63;93468.56;5106263;28;20051;-76
2023/02/04 07:01:42;;;;;;;2.72;1.42;;;;;;;2.56;60.32;93456.13;5106212;28;20069;-75
2023/02/04 07:04:08;;;;;;;5.10;1.20;;;;;;;2.65;59.74;93452.94;5106238;28;20058;-73
2023/02/04 07:06:33;;;;;;;3.03;0.82;;;;;;;2.70;59.82;93466.81;5106294;28;20016;-78
2023/02/04 07:08:59;;;;;;;2.92;1.30;;;;;;;2.71;59.91;93457.09;5106169;28;20364;-78
2023/02/04 07:11:24;;;;;;;5.68;1.02;;;;;;;2.82;60.22;93487.56;5106054;28;20016;-78
2023/02/04 07:13:50;;;;;;;2.78;0.88;;;;;;;2.83;60.09;93470.72;5106139;28;20027;-79
2023/02/04 07:16:15;;;;;;;2.65;0.90;;;;;;;2.82;59.94;93471.75;5104777;28;20026;-79
2023/02/04 07:18:40;;;;;;;2.65;0.90;;;;;;;2.81;60.69;93451.78;5105944;28;20377;-78
2023/02/04 07:21:06;;;;;;;2.63;0.90;;;;;;;2.86;61.54;93461.47;5105870;28;20031;-78
2023/02/04 07:23:31;;;;;;;1.25;0.85;;;;;;;2.90;59.30;93449.34;5105880;28;20020;-76
2023/02/04 07:25:58;;;;;;;3.80;0.90;;;;;;;2.91;59.11;93435.09;5105372;28;20024;-76
2023/02/04 07:28:24;;;;;;;2.03;1.00;;;;;;;2.96;58.78;93438.47;5105501;28;20313;-76
2023/02/04 07:30:49;;;;;;;5.50;0.95;;;;;;;3.01;58.93;93442.91;5105550;28;20019;-76
2023/02/04 07:33:14;;;;;;;2.55;1.05;;;;;;;2.99;58.43;93427.41;5105805;28;20077;-77
2023/02/04 07:36:14;;;;;;;1.65;0.90;;;;;;;2.98;57.98;93422.41;5105555;28;20030;-77
2023/02/04 07:38:46;;;;;;;1.67;0.50;;;;;;;3.03;58.09;93418.94;5105315;28;20032;-77
2023/02/04 07:41:12;;;;;;;5.80;1.20;;;;;;;3.12;57.79;93431.25;5105465;28;20030;-78
2023/02/04 07:43:37;;;;;;;2.20;0.98;;;;;;;3.25;58.20;93415.88;5105486;28;20020;-77
2023/02/04 07:46:02;;;;;;;2.03;0.90;;;;;;;3.33;57.84;93436.34;5105553;28;20044;-78
2023/02/04 07:48:28;;;;;;;1.42;0.82;;;;;;;3.30;57.98;93434.28;5105384;28;20044;-77
2023/02/04 07:50:53;;;;;;;1.52;1.00;;;;;;;3.22;57.57;93433.78;5105331;28;20020;-77
2023/02/04 07:53:19;;;;;;;2.60;1.05;;;;;;;3.25;57.55;93423.78;5105119;28;20087;-77
2023/02/04 07:55:44;;;;;;;2.20;1.00;;;;;;;3.31;57.54;93435.81;5104937;28;20091;-78
2023/02/04 07:58:09;;;;;;;3.35;0.98;;;;;;;3.35;57.72;93429.72;5105152;28;20062;-78
2023/02/04 08:00:35;;;;;;;2.33;1.00;;;;;;;3.26;57.83;93418.22;5105143;28;20024;-77
2023/02/04 08:03:00;;;;;;;4.88;1.02;;;;;;;3.26;57.88;93434.03;5104903;28;20042;-77
2023/02/04 08:05:26;;;;;;;2.50;1.05;;;;;;;3.20;58.22;93428.03;5104940;28;20050;-79
2023/02/04 08:07:51;;;;;;;2.03;0.90;;;;;;;3.17;58.00;93417.25;5103720;28;20024;-77
2023/02/04 08:10:16;;;;;;;3.88;1.00;;;;;;;3.11;58.35;93439.41;5103905;28;20016;-78
2023/02/04 08:12:42;;;;;;;2.17;0.93;;;;;;;3.04;59.05;93431.06;5104409;28;20095;-77
2023/02/04 08:15:08;;;;;;;1.98;0.80;;;;;;;3.00;59.57;93442.13;5104031;28;20054;-77
2023/02/04 08:17:34;;;;;;;2.67;0.93;;;;;;;2.93;59.66;93432.97;5104797;28;20040;-77
2023/02/04 08:19:59;;;;;;;7.53;1.10;;;;;;;3.03;59.67;93426.84;5104724;28;20196;-78
2023/02/04 08:22:25;;;;;;;3.38;1.27;;;;;;;2.94;59.96;93448.50;5104441;28;20030;-77
2023/02/04 08:24:50;;;;;;;2.20;0.80;;;;;;;2.92;60.06;93439.31;5104380;28;20016;-79
2023/02/04 08:27:16;;;;;;;1.20;0.77;;;;;;;2.94;60.08;93442.47;5102868;28;20023;-76
2023/02/04 08:29:41;;;;;;;1.63;0.82;;;;;;;2.95;59.89;93438.75;5103320;28;20303;-79
2023/02/04 08:32:08;;;;;;;1.40;0.82;;;;;;;2.99;59.36;93460.84;5104346;28;20032;-80
2023/02/04 08:34:34;;;;;;;1.27;0.70;;;;;;;3.01;59.96;93416.59;5104456;28;20019;-80
2023/02/04 08:37:00;;;;;;;1.48;0.80;;;;;;;2.98;60.07;93428.47;5104195;28;20035;-80
2023/02/04 08:39:25;;;;;;;2.65;0.80;;;;;;;2.91;60.91;93421.94;5104255;28;20027;-81
2023/02/04 08:41:50;;;;;;;1.45;0.85;;;;;;;2.92;60.42;93455.88;5104203;28;20210;-81
2023/02/04 08:44:16;;;;;;;0.80;0.50;;;;;;;2.93;60.77;93422.44;5103836;28;20322;-81
2023/02/04 08:46:41;;;;;;;1.08;0.45;;;;;;;2.94;60.82;93416.13;5103967;28;20039;-81
2023/02/04 08:49:07;;;;;;;0.85;0.60;;;;;;;2.84;60.91;93419.63;5103160;28;20020;-79
2023/02/04 08:51:33;;;;;;;0.43;0.40;;;;;;;2.92;60.18;93397.19;5102505;28;20015;-79
2023/02/04 08:53:58;;;;;;;0.40;0.30;;;;;;;2.91;60.12;93395.59;5102007;28;20020;-79
2023/02/04 08:56:24;;;;;;;0.55;0.30;;;;;;;2.95;60.43;93407.16;5102079;28;20020;-79
2023/02/04 08:58:51;;;;;;;0.95;0.30;;;;;;;2.96;59.80;93401.63;5102242;28;20088;-79
2023/02/04 09:01:17;;;;;;;0.75;0.43;;;;;;;3.02;59.21;93423.44;5101900;28;20019;-79
2023/02/04 09:03:43;;;;;;;0.82;0.30;;;;;;;3.03;59.49;93400.53;5101902;28;20054;-79
2023/02/04 09:06:09;;;;;;;0.40;0.32;;;;;;;3.06;59.24;93402.63;5102464;28;20047;-79
2023/02/04 09:08:35;;;;;;;0.35;0.35;;;;;;;3.10;58.63;93399.13;5103963;28;20024;-79
2023/02/04 09:11:00;;;;;;;2.65;0.60;;;;;;;3.20;58.01;93406.16;5103876;28;20375;-79
2023/02/04 09:13:26;;;;;;;1.42;0.63;;;;;;;3.18;58.16;93416.19;5103787;28;20425;-79
2023/02/04 09:15:52;;;;;;;0.40;0.40;;;;;;;3.23;58.14;93413.50;5103402;28;20226;-79
2023/02/04 09:18:20;;;;;;;0.60;0.40;;;;;;;3.25;57.56;93395.56;5103387;28;20012;-79
2023/02/04 09:20:47;;;;;;;0.40;0.40;;;;;;;3.26;56.84;93384.00;5103533;28;20031;-79
2023/02/04 09:23:12;;;;;;;0.80;0.50;;;;;;;3.32;57.05;93403.16;5103520;28;20023;-79
2023/02/04 09:25:39;;;;;;;1.20;0.50;;;;;;;3.33;56.93;93394.97;5103422;28;20035;-79
2023/02/04 09:28:05;;;;;;;2.00;0.38;;;;;;;3.37;57.03;93392.56;5103465;28;20024;-79
2023/02/04 09:30:31;;;;;;;3.78;0.40;;;;;;;3.33;57.29;93402.88;5103668;28;20068;-79
2023/02/04 09:32:56;;;;;;;0.82;0.47;;;;;;;3.42;58.00;93403.06;5103324;28;20138;-79
2023/02/04 09:35:22;;;;;;;0.77;0.57;;;;;;;3.24;59.17;93394.03;5103238;28;20023;-79
2023/02/04 09:37:47;;;;;;;0.60;0.47;;;;;;;3.14;61.57;93404.66;5102841;28;20020;-79
2023/02/04 09:40:16;;;;;;;0.75;0.50;;;;;;;3.04;62.64;93415.28;5103304;28;20020;-79
2023/02/04 09:42:43;;;;;;;0.30;0.30;;;;;;;2.98;63.02;93396.09;5103102;28;20364;-79
2023/02/04 09:45:19;;;;;;;2.75;0.65;;;;;;;3.02;63.63;93394.47;5103246;28;20020;-78
2023/02/04 09:47:45;;;;;;;1.77;0.90;;;;;;;2.97;64.15;93394.50;5101636;28;20032;-79
2023/02/04 09:50:17;;;;;;;1.55;0.65;;;;;;;2.93;65.81;93396.94;5103229;28;20055;-79
2023/02/04 09:52:43;;;;;;;1.30;0.55;;;;;;;2.76;65.13;93378.09;5103097;28;20028;-79
2023/02/04 09:55:13;;;;;;;1.83;0.88;;;;;;;2.76;66.12;93388.63;5103101;28;20035;-79
2023/02/04 09:57:40;;;;;;;4.00;1.08;;;;;;;2.79;65.07;93367.03;5102918;28;20043;-79
2023/02/04 10:00:15;;;;;;;1.88;0.85;;;;;;;2.93;64.30;93367.16;5103164;28;20028;-78
2023/02/04 10:02:40;;;;;;;1.98;0.60;;;;;;;2.98;63.04;93391.59;5103006;28;20043;-78
2023/02/04 10:05:13;;;;;;;1.40;0.70;;;;;;;2.93;62.36;93352.19;5103001;28;20024;-79
2023/02/04 10:07:39;;;;;;;0.30;0.30;;;;;;;2.91;62.07;93364.81;5102843;28;20373;-79
2023/02/04 10:10:05;;;;;;;0.82;0.40;;;;;;;2.90;62.09;93359.84;5103230;28;20054;-79
2023/02/04 10:12:31;;;;;;;1.75;0.43;;;;;;;2.93;62.21;93367.97;5103029;28;20020;-80
2023/02/04 10:14:57;;;;;;;3.28;0.40;;;;;;;2.97;61.77;93358.47;5103060;28;20048;-79
2023/02/04 10:17:22;;;;;;;1.13;0.57;;;;;;;3.01;61.04;93364.75;5102914;28;20050;-81
2023/02/04 10:19:49;;;;;;;0.35;0.35;;;;;;;3.03;61.71;93345.22;5102958;28;20047;-82
2023/02/04 10:22:20;;;;;;;3.90;0.35;;;;;;;2.98;63.36;93354.75;5102944;28;20054;-82
2023/02/04 10:24:45;;;;;;;0.33;0.33;;;;;;;2.89;63.33;93338.00;5102871;28;20020;-82
2023/02/04 10:27:15;;;;;;;0.70;0.40;;;;;;;2.92;63.46;93332.16;5102755;28;20024;-80
2023/02/04 10:29:41;;;;;;;1.23;0.40;;;;;;;2.96;63.21;93335.81;5102851;28;20253;-79
2023/02/04 10:32:28;;;;;;;1.08;0.40;;;;;;;2.95;63.75;93329.00;5102853;28;20211;-80
2023/02/04 10:35:01;;;;;;;0.47;0.32;;;;;;;2.96;64.06;93354.25;5102838;28;20196;-83
2023/02/04 10:37:29;;;;;;;0.20;0.20;;;;;;;2.85;65.56;93334.34;5102908;28;20031;-80
2023/02/04 10:39:54;;;;;;;0.25;0.25;;;;;;;2.70;68.24;93355.53;5102945;28;20027;-80
2023/02/04 10:42:25;;;;;;;0.20;0.20;;;;;;;2.46;69.57;93345.69;5102598;28;20091;-79
2023/02/04 10:44:51;;;;;;;0.22;0.22;;;;;;;2.41;70.80;93351.00;5102706;28;20043;-77
2023/02/04 10:47:22;;;;;;;0.55;0.47;;;;;;;2.40;70.90;93337.06;5101242;28;20382;-79
2023/02/04 10:49:59;;;;;;;1.33;0.47;;;;;;;2.31;70.74;93332.66;5103373;28;20317;-80
2023/02/04 10:52:33;;;;;;;0.38;0.30;;;;;;;2.30;70.41;93357.38;5106466;28;20027;-79
2023/02/04 10:55:01;;;;;;;0.63;0.32;;;;;;;2.31;69.62;93351.84;5106248;28;20031;-79
2023/02/04 10:57:28;;;;;;;0.45;0.30;;;;;;;2.41;68.92;93327.34;5106400;28;20012;-78
2023/02/04 10:59:57;;;;;;;1.40;0.60;;;;;;;2.51;68.94;93331.75;5105214;28;20020;-78
2023/02/04 11:02:44;;;;;;;1.85;0.80;;;;;;;2.57;66.49;93323.53;5106239;28;20234;-79
2023/02/04 11:05:16;;;;;;;0.63;0.50;;;;;;;2.69;66.78;93317.13;5106295;28;20065;-79
2023/02/04 11:07:42;;;;;;;1.58;0.63;;;;;;;2.84;65.39;93314.34;5106214;28;20222;-79
2023/02/04 11:10:20;;;;;;;0.50;0.45;;;;;;;2.96;65.34;93303.44;5105986;28;20028;-79
2023/02/04 11:12:59;;;;;;;1.42;0.55;;;;;;;3.13;64.58;93297.72;5104908;28;20027;-79
2023/02/04 11:15:47;;;;;;;0.75;0.35;;;;;;;3.19;63.32;93310.56;5105853;28;20020;-79
2023/02/04 11:18:26;;;;;;;0.60;0.32;;;;;;;3.26;63.33;93309.44;5105974;28;20024;-79
2023/02/04 11:20:54;;;;;;;0.55;0.38;;;;;;;3.17;62.57;93296.88;5105857;28;20024;-78
2023/02/04 11:23:25;;;;;;;0.30;0.30;;;;;;;3.21;62.18;93282.09;5104817;28;20214;-79
2023/02/04 11:26:03;;;;;;;0.70;0.35;;;;;;;3.24;62.72;93298.41;5105728;28;20031;-79
2023/02/04 11:28:55;;;;;;;0.32;0.30;;;;;;;3.35;63.23;93294.59;5105572;28;20039;-79
2023/02/04 11:31:20;;;;;;;0.40;0.40;;;;;;;3.34;63.27;93303.56;5105655;28;20046;-78
2023/02/04 11:33:47;;;;;;;0.63;0.40;;;;;;;3.24;63.76;93298.41;5105783;28;20027;-78
2023/02/04 11:36:14;;;;;;;1.05;0.50;;;;;;;3.27;63.75;93298.63;5105627;28;20196;-79